Time;durP1;ratioP1;P1;durP2;ratioP2;P2;SDS_P1;SDS_P2;PMS_P1;PMS_P2;Temp;Humidity;BMP_temperature;BMP_pressure;BME280_temperature;BME280_humidity;BME280_pressure;Samples;Min_cycle;Max_cycle;Signal;HPM_P1;HPM_P2
2021/07/07 00:00:08;;;;;;;4.50;1.70;;;16.60;99.90;;;;;;5116499;28;20369;-80
2021/07/07 00:02:35;;;;;;;7.13;1.90;;;16.70;99.90;;;;;;5115976;28;20553;-81
2021/07/07 00:05:06;;;;;;;5.40;1.93;;;16.80;99.90;;;;;;5116074;28;20682;-81
2021/07/07 00:07:33;;;;;;;4.47;1.87;;;16.80;99.90;;;;;;5116342;28;20221;-81
2021/07/07 00:09:59;;;;;;;3.83;1.80;;;16.90;99.90;;;;;;5116445;28;20301;-80
2021/07/07 00:12:28;;;;;;;6.20;2.40;;;16.90;99.90;;;;;;5115928;28;20267;-80
2021/07/07 00:14:55;;;;;;;5.97;1.70;;;17.00;99.90;;;;;;5115454;28;20691;-81
2021/07/07 00:17:22;;;;;;;6.13;1.63;;;17.00;99.90;;;;;;5115830;28;20247;-80
2021/07/07 00:19:49;;;;;;;4.67;1.80;;;17.00;99.90;;;;;;5115619;28;20225;-81
2021/07/07 00:22:16;;;;;;;3.20;1.57;;;16.90;99.90;;;;;;5115505;28;20226;-80
2021/07/07 00:24:44;;;;;;;4.43;1.63;;;17.00;99.90;;;;;;5115580;28;20624;-80
2021/07/07 00:27:13;;;;;;;5.77;1.90;;;16.90;99.90;;;;;;5115901;28;20198;-81
2021/07/07 00:29:43;;;;;;;6.17;1.83;;;16.90;99.90;;;;;;5115753;28;20208;-81
2021/07/07 00:32:11;;;;;;;5.17;1.70;;;16.90;99.90;;;;;;5116057;28;20311;-80
2021/07/07 00:34:38;;;;;;;4.73;1.97;;;17.00;99.90;;;;;;5115843;28;20194;-81
2021/07/07 00:37:05;;;;;;;6.53;2.00;;;17.00;99.90;;;;;;5115322;28;20276;-80
2021/07/07 00:39:32;;;;;;;8.53;1.90;;;16.90;99.90;;;;;;5115536;28;20237;-80
2021/07/07 00:41:59;;;;;;;5.83;2.23;;;16.90;99.90;;;;;;5115930;28;20281;-82
2021/07/07 00:44:28;;;;;;;9.87;2.00;;;16.60;99.90;;;;;;5115697;28;20233;-82
2021/07/07 00:46:56;;;;;;;7.00;2.37;;;16.40;99.90;;;;;;5115757;28;20190;-82
2021/07/07 00:49:23;;;;;;;7.43;2.27;;;16.40;99.90;;;;;;5115507;28;20198;-81
2021/07/07 00:51:50;;;;;;;11.27;2.50;;;16.30;99.90;;;;;;5115466;28;20740;-81
2021/07/07 00:54:20;;;;;;;6.90;2.30;;;16.20;99.90;;;;;;5115672;28;20732;-81
2021/07/07 00:56:49;;;;;;;11.70;2.23;;;16.10;99.90;;;;;;5115716;28;20285;-81
2021/07/07 00:59:18;;;;;;;4.57;2.17;;;16.10;99.90;;;;;;5115668;28;20252;-81
2021/07/07 01:01:45;;;;;;;6.50;2.10;;;16.10;99.90;;;;;;5115306;28;20659;-82
2021/07/07 01:04:15;;;;;;;5.23;2.10;;;16.10;99.90;;;;;;5115412;28;20199;-80
2021/07/07 01:06:42;;;;;;;6.33;2.30;;;16.10;99.90;;;;;;5115230;28;20747;-81
2021/07/07 01:09:09;;;;;;;6.40;2.20;;;16.00;99.90;;;;;;5115087;28;20190;-80
2021/07/07 01:11:36;;;;;;;6.93;2.50;;;16.00;99.90;;;;;;5115316;28;20202;-80
2021/07/07 01:14:03;;;;;;;8.27;2.70;;;16.00;99.90;;;;;;5115461;28;20611;-81
2021/07/07 01:16:31;;;;;;;7.90;2.67;;;15.90;99.90;;;;;;5115054;28;20198;-81
2021/07/07 01:18:58;;;;;;;9.00;2.40;;;16.10;99.90;;;;;;5115214;28;20230;-80
2021/07/07 01:21:27;;;;;;;4.47;2.60;;;16.10;99.90;;;;;;5114908;28;20285;-81
2021/07/07 01:23:55;;;;;;;9.93;2.50;;;16.20;99.90;;;;;;5114890;28;20259;-80
2021/07/07 01:26:22;;;;;;;10.83;2.90;;;16.20;99.90;;;;;;5114771;28;20234;-81
2021/07/07 01:28:49;;;;;;;6.87;2.60;;;16.30;99.90;;;;;;5114950;28;20251;-80
2021/07/07 01:31:16;;;;;;;5.57;2.60;;;16.40;99.90;;;;;;5114781;28;20247;-81
2021/07/07 01:33:43;;;;;;;6.27;2.47;;;16.40;99.90;;;;;;5114671;28;20222;-81
2021/07/07 01:36:10;;;;;;;9.10;3.23;;;16.30;99.90;;;;;;5114985;28;20190;-80
2021/07/07 01:38:37;;;;;;;5.83;3.13;;;16.20;99.90;;;;;;5114859;28;20230;-81
2021/07/07 01:41:05;;;;;;;6.17;2.70;;;16.30;99.90;;;;;;5114615;28;20243;-80
2021/07/07 01:43:32;;;;;;;7.67;2.77;;;16.30;99.90;;;;;;5114555;28;20302;-80
2021/07/07 01:45:59;;;;;;;10.70;3.20;;;16.20;99.90;;;;;;5114605;28;20365;-80
2021/07/07 01:48:26;;;;;;;5.37;2.67;;;16.20;99.90;;;;;;5114498;28;20222;-80
2021/07/07 01:50:53;;;;;;;6.20;3.20;;;16.30;99.90;;;;;;5114580;28;20285;-81
2021/07/07 01:53:20;;;;;;;8.53;3.17;;;16.30;99.90;;;;;;5114833;28;20411;-80
2021/07/07 01:55:48;;;;;;;10.13;3.13;;;16.30;99.90;;;;;;5114424;28;20380;-80
2021/07/07 01:58:16;;;;;;;5.60;3.10;;;16.20;99.90;;;;;;5114260;28;20292;-80
2021/07/07 02:00:43;;;;;;;7.47;3.53;;;16.20;99.90;;;;;;5113621;28;20290;-81
2021/07/07 02:03:10;;;;;;;12.00;3.57;;;16.10;99.90;;;;;;5114459;28;20201;-81
2021/07/07 02:05:41;;;;;;;7.50;3.20;;;16.20;99.90;;;;;;5114116;28;20202;-80
2021/07/07 02:08:10;;;;;;;9.83;3.63;;;16.20;99.90;;;;;;5114422;28;20259;-80
2021/07/07 02:10:38;;;;;;;7.43;3.53;;;16.20;99.90;;;;;;5114120;28;20204;-80
2021/07/07 02:13:06;;;;;;;6.60;4.07;;;16.30;99.90;;;;;;5113927;28;20734;-80
2021/07/07 02:15:36;;;;;;;5.40;3.20;;;16.30;99.90;;;;;;5113868;28;20675;-80
2021/07/07 02:18:04;;;;;;;6.93;3.60;;;16.30;99.90;;;;;;5113673;28;20280;-79
2021/07/07 02:20:33;;;;;;;7.60;3.43;;;16.30;99.90;;;;;;5113889;28;20210;-80
2021/07/07 02:23:00;;;;;;;7.77;3.40;;;16.30;99.90;;;;;;5114081;28;20285;-81
2021/07/07 02:25:30;;;;;;;6.43;3.90;;;16.30;99.90;;;;;;5113911;28;20226;-80
2021/07/07 02:27:58;;;;;;;21.40;4.10;;;16.20;99.90;;;;;;5114246;28;20194;-80
2021/07/07 02:30:27;;;;;;;8.63;3.70;;;16.20;99.90;;;;;;5113522;28;20284;-79
2021/07/07 02:32:56;;;;;;;13.37;3.90;;;16.20;99.90;;;;;;5113517;28;20725;-80
2021/07/07 02:35:25;;;;;;;7.80;3.93;;;16.20;99.90;;;;;;5113763;28;20285;-80
2021/07/07 02:37:55;;;;;;;7.57;3.50;;;16.30;99.90;;;;;;5113467;28;20234;-80
2021/07/07 02:40:24;;;;;;;8.73;3.47;;;16.30;99.90;;;;;;5113433;28;20258;-80
2021/07/07 02:42:51;;;;;;;5.37;3.17;;;16.30;99.90;;;;;;5113434;28;20206;-80
2021/07/07 02:45:19;;;;;;;6.47;3.10;;;16.20;99.90;;;;;;5112946;28;20234;-80
2021/07/07 02:47:47;;;;;;;9.60;3.40;;;16.20;99.90;;;;;;5113654;28;20632;-80
2021/07/07 02:50:18;;;;;;;7.47;3.63;;;16.10;99.90;;;;;;5113612;28;20281;-80
2021/07/07 02:52:46;;;;;;;9.73;3.73;;;16.10;99.90;;;;;;5113072;28;20257;-80
2021/07/07 02:55:16;;;;;;;8.17;3.30;;;16.20;99.90;;;;;;5113082;28;20198;-80
2021/07/07 02:57:59;;;;;;;6.77;3.70;;;16.10;99.90;;;;;;5112994;28;20318;-80
2021/07/07 03:00:32;;;;;;;5.83;3.07;;;16.20;99.90;;;;;;5113657;28;20213;-80
2021/07/07 03:03:01;;;;;;;14.03;3.80;;;16.20;99.90;;;;;;5113010;28;20734;-80
2021/07/07 03:05:31;;;;;;;9.20;3.80;;;16.20;99.90;;;;;;5113284;28;20230;-80
2021/07/07 03:07:58;;;;;;;4.90;3.60;;;16.20;99.90;;;;;;5112973;28;20297;-80
2021/07/07 03:10:25;;;;;;;7.83;3.40;;;16.20;99.90;;;;;;5112849;28;20241;-80
2021/07/07 03:12:52;;;;;;;7.27;3.27;;;16.20;99.90;;;;;;5112027;28;20755;-80
2021/07/07 03:15:19;;;;;;;5.70;2.97;;;16.10;99.90;;;;;;5113237;28;20208;-80
2021/07/07 03:17:46;;;;;;;5.10;2.70;;;16.10;99.90;;;;;;5112792;28;20229;-80
2021/07/07 03:20:14;;;;;;;10.43;3.23;;;16.10;99.90;;;;;;5113039;28;20473;-80
2021/07/07 03:22:42;;;;;;;8.53;2.87;;;16.00;99.90;;;;;;5112698;28;20560;-80
2021/07/07 03:25:10;;;;;;;7.60;2.87;;;16.00;99.90;;;;;;5112955;28;20244;-80
2021/07/07 03:27:37;;;;;;;8.33;2.83;;;15.90;99.90;;;;;;5112761;28;20654;-80
2021/07/07 03:30:05;;;;;;;6.43;3.07;;;15.90;99.90;;;;;;5112801;28;20230;-80
2021/07/07 03:32:32;;;;;;;5.93;2.80;;;16.00;99.90;;;;;;5112672;28;20219;-80
2021/07/07 03:34:59;;;;;;;7.93;2.50;;;16.00;99.90;;;;;;5112761;28;20190;-80
2021/07/07 03:37:26;;;;;;;6.80;3.10;;;15.90;99.90;;;;;;5112716;28;20296;-80
2021/07/07 03:39:54;;;;;;;7.13;2.80;;;15.90;99.90;;;;;;5112642;28;20255;-80
2021/07/07 03:42:21;;;;;;;7.73;2.93;;;16.00;99.90;;;;;;5112619;28;20573;-80
2021/07/07 03:44:48;;;;;;;5.57;2.43;;;15.90;99.90;;;;;;5113228;28;20251;-79
2021/07/07 03:47:15;;;;;;;5.83;2.73;;;15.80;99.90;;;;;;5112633;28;20222;-80
2021/07/07 03:49:42;;;;;;;8.60;3.13;;;15.90;99.90;;;;;;5112520;28;20634;-80
2021/07/07 03:52:09;;;;;;;7.30;2.40;;;15.80;99.90;;;;;;5112866;28;20661;-80
2021/07/07 03:54:36;;;;;;;5.67;2.40;;;15.80;99.90;;;;;;5112856;28;20245;-80
2021/07/07 03:57:05;;;;;;;12.70;3.00;;;15.80;99.90;;;;;;5112768;28;20194;-80
2021/07/07 03:59:32;;;;;;;8.87;2.93;;;15.80;99.90;;;;;;5113009;28;20237;-80
2021/07/07 04:01:59;;;;;;;12.20;2.77;;;15.80;99.90;;;;;;5112518;28;20281;-79
2021/07/07 04:04:26;;;;;;;7.93;2.90;;;15.70;99.90;;;;;;5112461;28;20206;-80
2021/07/07 04:06:57;;;;;;;7.77;2.53;;;15.70;99.90;;;;;;5112579;28;20281;-80
2021/07/07 04:09:27;;;;;;;9.70;2.70;;;15.70;99.90;;;;;;5112436;28;20245;-79
2021/07/07 04:11:54;;;;;;;7.03;2.80;;;15.60;99.90;;;;;;5112642;28;20251;-80
2021/07/07 04:14:24;;;;;;;12.43;3.53;;;15.60;99.90;;;;;;5112290;28;20226;-79
2021/07/07 04:16:51;;;;;;;8.83;2.80;;;15.50;99.90;;;;;;5112391;28;20670;-79
2021/07/07 04:19:18;;;;;;;10.00;2.90;;;15.50;99.90;;;;;;5112435;28;20737;-79
2021/07/07 04:21:45;;;;;;;10.80;3.10;;;15.50;99.90;;;;;;5112686;28;20209;-79
2021/07/07 04:24:12;;;;;;;10.17;3.10;;;15.40;99.90;;;;;;5115768;28;20281;-79
2021/07/07 04:26:39;;;;;;;5.90;3.07;;;15.40;99.90;;;;;;5116019;28;20236;-79
2021/07/07 04:29:06;;;;;;;8.53;3.07;;;15.40;99.90;;;;;;5116031;28;20277;-79
2021/07/07 04:31:34;;;;;;;7.03;3.20;;;15.50;99.90;;;;;;5115842;28;20195;-80
2021/07/07 04:34:02;;;;;;;14.10;3.20;;;15.70;99.90;;;;;;5115968;28;20226;-79
2021/07/07 04:36:29;;;;;;;7.20;2.77;;;15.70;99.90;;;;;;5116035;28;20230;-79
2021/07/07 04:38:56;;;;;;;7.77;2.60;;;15.80;99.90;;;;;;5115786;28;20629;-79
2021/07/07 04:41:23;;;;;;;10.17;2.60;;;16.10;99.90;;;;;;5115903;28;20709;-80
2021/07/07 04:43:50;;;;;;;8.00;2.90;;;16.20;99.90;;;;;;5116303;28;20563;-79
2021/07/07 04:46:17;;;;;;;8.90;2.77;;;16.40;99.90;;;;;;5116883;28;20194;-79
2021/07/07 04:48:45;;;;;;;7.97;2.80;;;16.50;99.90;;;;;;5115898;28;20194;-79
2021/07/07 04:51:12;;;;;;;8.93;2.80;;;16.70;99.90;;;;;;5116033;28;20281;-79
2021/07/07 04:53:39;;;;;;;14.27;2.40;;;16.90;99.90;;;;;;5115516;28;20228;-79
2021/07/07 04:56:07;;;;;;;4.03;2.23;;;17.00;99.90;;;;;;5115539;28;20201;-80
2021/07/07 04:58:34;;;;;;;6.67;2.30;;;17.20;99.90;;;;;;5114273;28;20198;-80
2021/07/07 05:01:01;;;;;;;9.10;2.47;;;17.40;99.90;;;;;;5115452;28;20347;-79
2021/07/07 05:03:28;;;;;;;6.67;2.53;;;17.80;99.90;;;;;;5114786;28;20205;-79
2021/07/07 05:05:57;;;;;;;15.20;3.00;;;18.20;99.90;;;;;;5114084;28;20285;-80
2021/07/07 05:08:24;;;;;;;7.53;2.53;;;19.00;99.90;;;;;;5114835;28;20315;-80
2021/07/07 05:10:51;;;;;;;8.67;2.40;;;20.00;99.90;;;;;;5114833;28;20222;-80
2021/07/07 05:13:18;;;;;;;5.90;2.00;;;21.40;99.90;;;;;;5110724;28;20279;-80
2021/07/07 05:15:47;;;;;;;8.25;2.42;;;22.70;99.90;;;;;;5113215;27;20289;-80
2021/07/07 05:18:15;;;;;;;8.40;2.38;;;24.00;99.90;;;;;;5113494;28;20617;-80
2021/07/07 05:20:42;;;;;;;8.95;2.45;;;25.10;99.90;;;;;;5113331;28;20277;-80
2021/07/07 05:23:10;;;;;;;5.13;2.28;;;26.10;99.90;;;;;;5113942;28;20285;-80
2021/07/07 05:25:39;;;;;;;5.78;2.25;;;26.80;99.90;;;;;;5114446;28;20196;-81
2021/07/07 05:28:07;;;;;;;6.10;2.00;;;27.90;99.90;;;;;;5115090;28;20226;-80
2021/07/07 05:30:34;;;;;;;5.95;2.05;;;28.80;99.90;;;;;;5115038;28;20200;-80
2021/07/07 05:33:02;;;;;;;5.15;1.95;;;29.70;99.90;;;;;;5114858;28;20194;-81
2021/07/07 05:35:29;;;;;;;12.20;2.03;;;30.50;99.90;;;;;;5113657;28;20320;-81
2021/07/07 05:37:58;;;;;;;6.93;2.00;;;31.20;99.90;;;;;;5113836;28;20220;-79
2021/07/07 05:40:27;;;;;;;6.35;2.15;;;31.50;99.90;;;;;;5114625;28;20237;-80
2021/07/07 05:42:54;;;;;;;7.32;2.28;;;31.80;99.90;;;;;;5114434;28;20206;-78
2021/07/07 05:45:22;;;;;;;6.88;1.90;;;32.10;99.90;;;;;;5115017;28;20302;-79
2021/07/07 05:47:49;;;;;;;8.32;2.05;;;32.70;99.90;;;;;;5114520;28;20194;-80
2021/07/07 05:50:17;;;;;;;8.45;2.30;;;33.70;99.90;;;;;;5114659;28;20281;-80
2021/07/07 05:52:44;;;;;;;11.60;2.13;;;34.00;99.90;;;;;;5114889;28;20369;-80
2021/07/07 05:55:12;;;;;;;7.80;2.08;;;34.00;99.90;;;;;;5114264;28;20312;-79
2021/07/07 05:57:40;;;;;;;5.03;1.80;;;34.80;99.90;;;;;;5114399;28;20678;-80
2021/07/07 06:00:10;;;;;;;8.05;2.20;;;34.50;99.90;;;;;;5111857;28;20194;-79
2021/07/07 06:02:37;;;;;;;7.75;2.00;;;34.20;99.90;;;;;;5113352;28;20191;-79
2021/07/07 06:05:06;;;;;;;5.75;1.90;;;34.70;99.90;;;;;;5113931;28;20353;-81
2021/07/07 06:07:33;;;;;;;9.57;1.95;;;34.50;99.90;;;;;;5114823;28;20263;-80
2021/07/07 06:10:00;;;;;;;7.95;1.88;;;34.20;99.90;;;;;;5114361;28;20232;-79
2021/07/07 06:12:27;;;;;;;5.72;2.05;;;34.60;99.90;;;;;;5113319;28;20284;-79
2021/07/07 06:14:57;;;;;;;10.43;2.05;;;34.70;99.90;;;;;;5113551;28;20771;-78
2021/07/07 06:17:24;;;;;;;9.60;2.17;;;34.80;99.90;;;;;;5113084;28;20195;-79
2021/07/07 06:19:52;;;;;;;7.35;2.00;;;35.10;99.60;;;;;;5113047;28;20190;-79
2021/07/07 06:22:19;;;;;;;8.88;2.35;;;35.70;99.60;;;;;;5113006;28;20252;-75
2021/07/07 06:24:46;;;;;;;5.78;1.98;;;36.00;99.40;;;;;;5112801;28;20281;-79
2021/07/07 06:27:12;;;;;;;5.10;1.70;;;36.60;98.20;;;;;;5112954;28;20285;-79
2021/07/07 06:29:43;;;;;;;4.88;2.05;;;37.00;96.60;;;;;;5113011;28;20277;-78
2021/07/07 06:32:13;;;;;;;4.15;1.83;;;35.00;96.50;;;;;;5113494;28;20225;-79
2021/07/07 06:34:40;;;;;;;7.07;2.00;;;34.30;97.70;;;;;;5113223;28;20206;-79
2021/07/07 06:37:09;;;;;;;9.02;2.25;;;33.20;98.30;;;;;;5113389;28;20276;-79
2021/07/07 06:39:36;;;;;;;3.70;1.92;;;32.90;99.90;;;;;;5113380;28;20706;-80
2021/07/07 06:42:04;;;;;;;5.70;2.10;;;33.00;99.80;;;;;;5113306;28;20230;-79
2021/07/07 06:44:31;;;;;;;8.27;2.30;;;33.40;99.90;;;;;;5113071;28;20657;-78
2021/07/07 06:46:58;;;;;;;10.05;2.28;;;33.90;98.90;;;;;;5112564;28;20198;-79
2021/07/07 06:49:26;;;;;;;11.43;2.13;;;33.70;98.70;;;;;;5113075;28;20253;-79
2021/07/07 06:51:53;;;;;;;6.20;2.17;;;33.00;98.60;;;;;;5113078;28;20281;-79
2021/07/07 06:54:20;;;;;;;11.43;2.38;;;32.40;99.70;;;;;;5112916;28;20320;-79
2021/07/07 06:56:47;;;;;;;7.18;2.45;;;31.40;99.90;;;;;;5108726;28;20205;-79
2021/07/07 06:59:13;;;;;;;13.52;3.17;;;30.10;99.90;;;;;;5111754;28;20206;-79
2021/07/07 07:01:40;;;;;;;5.45;2.20;;;29.40;99.90;;;;;;5112232;28;20258;-79
2021/07/07 07:04:07;;;;;;;6.70;2.40;;;28.50;99.90;;;;;;5112944;28;20198;-78
2021/07/07 07:06:38;;;;;;;9.13;2.30;;;27.80;99.90;;;;;;5112504;28;20288;-78
2021/07/07 07:09:05;;;;;;;7.93;2.38;;;26.60;99.90;;;;;;5113121;28;20213;-78
2021/07/07 07:11:32;;;;;;;10.75;2.42;;;25.90;99.90;;;;;;5112841;28;20198;-79
2021/07/07 07:13:59;;;;;;;7.38;2.25;;;26.40;99.90;;;;;;5113037;28;20266;-81
2021/07/07 07:16:26;;;;;;;7.07;2.15;;;27.80;99.90;;;;;;5113289;28;20198;-80
2021/07/07 07:18:53;;;;;;;6.05;2.20;;;29.30;99.90;;;;;;5112812;28;20195;-79
2021/07/07 07:21:20;;;;;;;9.50;2.55;;;30.50;99.90;;;;;;5113181;28;20285;-78
2021/07/07 07:23:48;;;;;;;10.73;2.50;;;31.00;99.90;;;;;;5113307;28;20251;-78
2021/07/07 07:26:15;;;;;;;8.43;2.42;;;31.20;99.90;;;;;;5113500;28;20713;-80
2021/07/07 07:28:43;;;;;;;8.13;2.40;;;30.60;99.90;;;;;;5113139;28;20240;-78
2021/07/07 07:31:10;;;;;;;9.65;2.50;;;30.30;99.90;;;;;;5112490;28;20250;-81
2021/07/07 07:33:37;;;;;;;7.35;2.25;;;30.80;99.90;;;;;;5111657;28;20739;-81
2021/07/07 07:36:05;;;;;;;9.38;2.60;;;32.00;99.90;;;;;;5129391;28;20312;-80
2021/07/07 07:38:39;;;;;;;5.75;2.13;;;32.50;99.90;;;;;;5112245;28;20197;-81
2021/07/07 07:41:07;;;;;;;8.27;2.05;;;32.20;99.90;;;;;;5112656;28;20259;-82
2021/07/07 07:43:35;;;;;;;7.47;2.13;;;31.80;99.90;;;;;;5111363;28;20190;-81
2021/07/07 07:46:02;;;;;;;10.50;2.15;;;31.50;99.90;;;;;;5112925;28;20212;-81
2021/07/07 07:48:29;;;;;;;8.15;2.38;;;32.10;99.90;;;;;;5113335;28;20672;-81
2021/07/07 07:50:56;;;;;;;5.95;1.95;;;32.70;99.90;;;;;;5111626;28;20280;-82
2021/07/07 07:53:24;;;;;;;7.90;2.30;;;32.90;99.90;;;;;;5111698;28;20247;-81
2021/07/07 07:55:51;;;;;;;7.95;2.20;;;32.60;99.90;;;;;;5113667;28;20245;-81
2021/07/07 07:58:20;;;;;;;6.68;2.47;;;32.00;99.90;;;;;;5112142;28;20205;-81
2021/07/07 08:00:47;;;;;;;9.25;2.35;;;31.60;99.90;;;;;;5116547;28;20212;-80
2021/07/07 08:03:14;;;;;;;7.38;2.35;;;31.10;99.90;;;;;;5113752;28;20237;-80
2021/07/07 08:05:42;;;;;;;6.85;2.10;;;29.90;99.90;;;;;;5116250;28;20259;-80
2021/07/07 08:08:10;;;;;;;6.03;2.70;;;28.50;99.90;;;;;;5116014;28;20209;-80
2021/07/07 08:10:38;;;;;;;5.63;2.28;;;27.50;99.90;;;;;;5116610;28;20615;-80
2021/07/07 08:13:06;;;;;;;6.90;2.10;;;27.60;99.90;;;;;;5115827;28;20243;-81
2021/07/07 08:15:34;;;;;;;8.90;2.35;;;28.40;99.90;;;;;;5115646;28;20221;-80
2021/07/07 08:18:01;;;;;;;4.85;2.53;;;28.50;99.90;;;;;;5115820;28;20202;-81
2021/07/07 08:20:29;;;;;;;5.20;2.10;;;27.50;99.90;;;;;;5113099;28;20251;-80
2021/07/07 08:22:56;;;;;;;5.72;2.30;;;26.00;99.90;;;;;;5115062;28;20277;-80
2021/07/07 08:25:23;;;;;;;9.52;2.60;;;25.00;99.90;;;;;;5115423;28;20217;-81
2021/07/07 08:27:50;;;;;;;11.40;2.90;;;24.40;99.90;;;;;;5115376;28;20222;-80
2021/07/07 08:30:18;;;;;;;12.50;2.65;;;24.20;99.90;;;;;;5115452;28;20233;-80
2021/07/07 08:32:47;;;;;;;8.20;2.33;;;24.20;99.90;;;;;;5115298;28;20233;-80
2021/07/07 08:35:14;;;;;;;10.25;2.47;;;24.10;99.90;;;;;;5115638;27;20245;-80
2021/07/07 08:37:42;;;;;;;11.15;3.00;;;23.70;99.90;;;;;;5115286;28;20281;-81
2021/07/07 08:40:12;;;;;;;3.85;2.35;;;23.50;99.90;;;;;;5113173;28;20298;-79
2021/07/07 08:42:42;;;;;;;5.93;2.65;;;23.20;99.90;;;;;;5115744;28;20543;-80
2021/07/07 08:45:11;;;;;;;7.53;2.95;;;22.80;99.90;;;;;;5112050;28;20549;-81
2021/07/07 08:47:40;;;;;;;12.73;2.70;;;22.90;99.90;;;;;;5115357;28;20226;-81
2021/07/07 08:50:11;;;;;;;9.75;3.03;;;23.30;99.90;;;;;;5115090;28;20202;-80
2021/07/07 08:52:39;;;;;;;6.03;2.78;;;23.30;99.90;;;;;;5113058;28;20216;-81
2021/07/07 08:55:07;;;;;;;8.02;3.22;;;23.20;99.90;;;;;;5114181;28;20209;-80
2021/07/07 08:57:42;;;;;;;6.55;2.50;;;23.00;99.90;;;;;;5114759;28;20308;-80
2021/07/07 09:00:11;;;;;;;7.15;2.95;;;24.90;99.90;;;;;;5111580;28;20228;-81
2021/07/07 09:02:50;;;;;;;7.88;2.63;;;27.80;99.90;;;;;;5112979;28;20221;-81
2021/07/07 09:05:19;;;;;;;6.43;2.40;;;30.00;99.90;;;;;;5113446;28;20625;-81
2021/07/07 09:07:46;;;;;;;11.18;2.58;;;31.20;99.90;;;;;;5113794;28;20202;-81
2021/07/07 09:10:26;;;;;;;6.05;2.30;;;33.10;99.90;;;;;;5111735;28;20254;-82
2021/07/07 09:12:56;;;;;;;4.70;2.35;;;32.10;99.90;;;;;;5113458;27;20273;-80
2021/07/07 09:15:23;;;;;;;6.18;2.03;;;30.70;99.90;;;;;;5111887;28;20879;-81
2021/07/07 09:17:52;;;;;;;6.28;2.15;;;29.10;99.90;;;;;;5113331;28;20255;-82
2021/07/07 09:20:24;;;;;;;6.07;2.42;;;28.70;99.90;;;;;;5114481;28;20553;-81
2021/07/07 09:22:52;;;;;;;5.85;2.22;;;28.80;99.90;;;;;;5111178;28;20198;-79
2021/07/07 09:25:28;;;;;;;7.78;2.25;;;29.40;99.90;;;;;;5114072;28;20190;-80
2021/07/07 09:27:55;;;;;;;3.15;1.80;;;31.80;99.90;;;;;;5114113;28;20290;-81
2021/07/07 09:30:22;;;;;;;4.45;2.30;;;32.00;99.90;;;;;;5113901;28;20186;-79
2021/07/07 09:32:51;;;;;;;6.10;2.30;;;31.10;99.90;;;;;;5114047;28;20675;-80
2021/07/07 09:35:20;;;;;;;6.18;2.15;;;29.50;99.90;;;;;;5114697;28;20321;-80
2021/07/07 09:37:53;;;;;;;3.90;2.10;;;28.20;99.90;;;;;;5114773;28;20202;-80
2021/07/07 09:40:22;;;;;;;3.03;2.05;;;27.60;99.90;;;;;;5114440;28;20230;-80
2021/07/07 09:42:49;;;;;;;6.88;2.42;;;27.70;99.90;;;;;;5114397;28;20205;-80
2021/07/07 09:45:21;;;;;;;9.00;2.13;;;28.40;99.90;;;;;;5114566;28;20288;-79
2021/07/07 09:47:48;;;;;;;6.00;1.98;;;28.60;99.90;;;;;;5114481;28;20277;-80
2021/07/07 09:50:17;;;;;;;6.20;2.33;;;29.00;99.90;;;;;;5114245;28;20724;-80
2021/07/07 09:52:44;;;;;;;7.65;2.45;;;29.20;99.90;;;;;;5114491;28;20225;-78
2021/07/07 09:55:13;;;;;;;3.45;1.90;;;28.50;99.90;;;;;;5114323;28;20634;-80
2021/07/07 09:57:48;;;;;;;4.22;2.10;;;28.60;99.90;;;;;;5111585;28;20194;-81
2021/07/07 10:00:18;;;;;;;5.22;2.30;;;29.30;99.90;;;;;;5113957;28;20243;-79
2021/07/07 10:02:47;;;;;;;5.72;2.22;;;30.00;99.90;;;;;;5111655;28;20285;-79
2021/07/07 10:05:16;;;;;;;5.10;2.40;;;30.90;99.90;;;;;;5113536;28;20277;-79
2021/07/07 10:07:44;;;;;;;4.88;2.80;;;29.80;99.90;;;;;;5110463;27;20321;-79
2021/07/07 10:10:15;;;;;;;4.45;2.20;;;29.00;99.90;;;;;;5112985;28;20206;-80
2021/07/07 10:12:44;;;;;;;11.20;2.70;;;28.50;99.90;;;;;;5110717;28;20185;-80
2021/07/07 10:15:13;;;;;;;5.50;2.20;;;28.10;99.90;;;;;;5113666;28;20225;-80
2021/07/07 10:17:41;;;;;;;6.32;2.53;;;28.00;99.90;;;;;;5123156;27;20202;-80
2021/07/07 10:20:09;;;;;;;5.53;1.92;;;27.40;99.90;;;;;;5112853;28;20197;-80
2021/07/07 10:22:37;;;;;;;5.78;2.40;;;27.10;99.90;;;;;;5113068;28;20273;-80
2021/07/07 10:25:07;;;;;;;5.22;2.65;;;27.20;99.90;;;;;;5111915;28;20270;-80
2021/07/07 10:27:36;;;;;;;3.22;2.05;;;28.40;99.90;;;;;;5112235;28;20198;-79
2021/07/07 10:30:05;;;;;;;8.63;2.60;;;28.80;99.90;;;;;;5110683;28;20190;-79
2021/07/07 10:32:32;;;;;;;6.10;2.10;;;28.90;99.90;;;;;;5113275;28;20187;-80
2021/07/07 10:35:05;;;;;;;4.38;2.47;;;28.60;99.90;;;;;;5114082;28;20281;-79
2021/07/07 10:37:35;;;;;;;4.75;2.13;;;28.30;99.90;;;;;;5100967;27;20212;-80
2021/07/07 10:40:24;;;;;;;7.70;2.47;;;27.60;99.90;;;;;;5095541;27;20195;-79
2021/07/07 10:42:52;;;;;;;5.60;2.03;;;27.40;99.90;;;;;;5110921;28;20562;-80
2021/07/07 10:45:32;;;;;;;5.63;2.03;;;27.50;99.90;;;;;;5112316;28;20289;-80
2021/07/07 10:48:24;;;;;;;4.70;2.05;;;27.10;99.90;;;;;;5112432;28;20229;-79
2021/07/07 10:50:54;;;;;;;3.72;2.42;;;26.80;99.90;;;;;;5113598;28;20201;-80
2021/07/07 10:53:30;;;;;;;5.22;2.50;;;26.70;99.90;;;;;;5112977;28;20228;-80
2021/07/07 10:55:58;;;;;;;8.15;2.88;;;26.80;99.90;;;;;;5113005;28;20229;-80
2021/07/07 10:58:29;;;;;;;7.45;2.58;;;26.70;99.90;;;;;;5112277;28;20209;-80
2021/07/07 11:00:56;;;;;;;7.75;2.45;;;26.70;99.90;;;;;;5112417;28;20229;-80
2021/07/07 11:03:36;;;;;;;5.88;2.60;;;27.60;99.90;;;;;;5112423;28;20190;-81
2021/07/07 11:06:29;;;;;;;5.60;2.30;;;27.60;99.90;;;;;;5112762;28;20205;-82
2021/07/07 11:09:08;;;;;;;5.28;2.60;;;27.10;99.90;;;;;;5112709;28;20198;-80
2021/07/07 11:11:36;;;;;;;5.80;2.50;;;27.40;99.90;;;;;;5112627;28;20220;-80
2021/07/07 11:14:12;;;;;;;6.57;2.22;;;29.70;99.90;;;;;;5113018;28;20206;-81
2021/07/07 11:16:46;;;;;;;4.35;2.30;;;30.90;99.90;;;;;;5112837;28;20217;-80
2021/07/07 11:19:51;;;;;;;4.82;2.40;;;32.80;99.90;;;;;;5111978;28;20187;-80
2021/07/07 11:22:19;;;;;;;8.43;2.58;;;33.20;99.90;;;;;;5095991;28;20210;-80
2021/07/07 11:24:48;;;;;;;4.00;2.30;;;34.40;99.90;;;;;;5112879;28;20214;-80
2021/07/07 11:27:15;;;;;;;5.28;2.50;;;34.50;99.90;;;;;;5113069;28;20250;-82
2021/07/07 11:29:44;;;;;;;4.68;2.08;;;33.90;99.90;;;;;;5125308;27;20285;-80
2021/07/07 11:32:31;;;;;;;12.32;2.17;;;33.50;99.90;;;;;;5112580;28;20245;-81
2021/07/07 11:34:59;;;;;;;5.57;2.10;;;32.10;99.90;;;;;;5116798;28;20316;-80
2021/07/07 11:37:28;;;;;;;5.05;2.22;;;31.20;99.90;;;;;;5108951;27;20232;-80
2021/07/07 11:40:20;;;;;;;5.55;2.55;;;30.40;99.90;;;;;;5115919;27;20194;-80
2021/07/07 11:42:58;;;;;;;4.47;1.98;;;29.60;99.90;;;;;;5096480;28;20213;-81
2021/07/07 11:45:32;;;;;;;4.10;2.33;;;29.20;99.90;;;;;;5117036;27;20236;-79
2021/07/07 11:48:02;;;;;;;3.70;2.00;;;29.90;99.90;;;;;;5116501;28;20202;-79
2021/07/07 11:50:30;;;;;;;5.28;2.08;;;30.80;99.90;;;;;;5117067;28;20281;-79
2021/07/07 11:53:00;;;;;;;3.90;2.10;;;31.50;99.90;;;;;;5116070;28;20202;-80
2021/07/07 11:56:00;;;;;;;3.67;2.05;;;32.60;99.90;;;;;;5116703;28;20286;-80
2021/07/07 11:58:32;;;;;;;3.70;1.90;;;32.40;99.90;;;;;;5115281;28;20557;-80
2021/07/07 12:01:04;;;;;;;5.45;1.92;;;31.80;99.90;;;;;;5099547;28;20186;-81
2021/07/07 12:03:32;;;;;;;2.90;2.05;;;31.50;99.90;;;;;;5115150;28;20182;-80
2021/07/07 12:06:02;;;;;;;6.30;2.25;;;31.40;99.90;;;;;;5115919;28;20246;-80
2021/07/07 12:08:32;;;;;;;3.38;1.80;;;31.70;99.90;;;;;;5115375;28;20648;-81
2021/07/07 12:11:14;;;;;;;5.53;1.95;;;31.90;99.90;;;;;;5116805;28;20234;-81
2021/07/07 12:13:43;;;;;;;6.90;2.28;;;32.20;99.90;;;;;;5114030;28;20190;-80
2021/07/07 12:16:24;;;;;;;4.25;2.15;;;32.20;99.90;;;;;;5115443;28;20314;-81
2021/07/07 12:18:53;;;;;;;4.38;1.90;;;32.00;99.90;;;;;;5115768;28;20198;-81
2021/07/07 12:21:34;;;;;;;4.03;2.03;;;31.30;99.90;;;;;;5115708;28;20664;-80
2021/07/07 12:24:04;;;;;;;4.80;1.92;;;31.50;99.90;;;;;;5116699;28;20190;-80
2021/07/07 12:26:34;;;;;;;4.72;1.90;;;31.80;99.90;;;;;;5115610;27;20198;-80
2021/07/07 12:29:02;;;;;;;6.43;2.10;;;31.80;99.90;;;;;;5124018;27;20276;-80
2021/07/07 12:31:32;;;;;;;6.82;1.90;;;31.50;99.90;;;;;;5127396;27;20202;-81
2021/07/07 12:34:00;;;;;;;3.55;1.92;;;31.50;99.90;;;;;;5115484;28;20206;-80
2021/07/07 12:36:28;;;;;;;5.47;2.08;;;31.40;99.90;;;;;;5115079;28;20218;-79
2021/07/07 12:38:57;;;;;;;4.22;2.10;;;31.70;99.90;;;;;;5119202;27;20244;-80
2021/07/07 12:41:34;;;;;;;5.63;1.80;;;30.90;99.90;;;;;;5116388;28;20731;-81
2021/07/07 12:44:09;;;;;;;6.40;2.13;;;30.00;99.90;;;;;;5115539;28;20186;-78
2021/07/07 12:46:48;;;;;;;3.65;1.98;;;30.30;99.90;;;;;;5115326;27;20198;-80
2021/07/07 12:49:22;;;;;;;3.47;1.80;;;31.20;99.90;;;;;;5133059;27;20539;-79
2021/07/07 12:51:50;;;;;;;2.85;1.90;;;31.70;99.90;;;;;;5129828;27;20651;-81
2021/07/07 12:54:22;;;;;;;4.57;2.05;;;31.80;99.90;;;;;;5114844;28;20217;-80